Time;durP1;ratioP1;P1;durP2;ratioP2;P2;SDS_P1;SDS_P2;PMS_P1;PMS_P2;Temp;Humidity;BMP_temperature;BMP_pressure;BME280_temperature;BME280_humidity;BME280_pressure;Samples;Min_cycle;Max_cycle;Signal;HPM_P1;HPM_P2
2022/04/07 00:00:52;;;;;;;6.97;3.50;;;10.20;99.90;;;;;;5016729;28;20386;-80
2022/04/07 00:03:18;;;;;;;7.50;4.50;;;10.30;99.90;;;;;;5033672;28;20021;-80
2022/04/07 00:05:45;;;;;;;6.93;4.27;;;10.10;99.90;;;;;;5034370;28;20025;-79
2022/04/07 00:08:11;;;;;;;8.10;4.37;;;10.00;99.90;;;;;;5033046;28;20544;-79
2022/04/07 00:10:37;;;;;;;6.80;4.40;;;10.00;99.90;;;;;;5034313;28;20026;-77
2022/04/07 00:13:03;;;;;;;8.27;4.40;;;10.00;99.90;;;;;;5033041;28;20040;-82
2022/04/07 00:15:30;;;;;;;6.17;3.70;;;10.00;99.90;;;;;;5017068;28;20500;-82
2022/04/07 00:17:57;;;;;;;7.70;4.57;;;9.90;99.90;;;;;;5034337;28;20028;-79
2022/04/07 00:20:24;;;;;;;7.77;3.93;;;9.90;99.90;;;;;;5033417;28;20414;-84
2022/04/07 00:22:50;;;;;;;6.73;3.57;;;9.90;99.90;;;;;;5034306;28;20528;-79
2022/04/07 00:25:16;;;;;;;9.68;4.97;;;10.00;99.90;;;;;;5033148;28;20025;-83
2022/04/07 00:27:42;;;;;;;8.90;5.17;;;9.90;99.90;;;;;;5033907;28;20018;-81
2022/04/07 00:30:13;;;;;;;6.70;5.00;;;9.90;99.90;;;;;;5034552;28;20033;-82
2022/04/07 00:32:45;;;;;;;8.80;5.70;;;9.80;99.90;;;;;;5016849;28;20036;-82
2022/04/07 00:35:11;;;;;;;9.23;5.60;;;9.80;99.90;;;;;;5032659;28;20024;-83
2022/04/07 00:37:37;;;;;;;9.53;5.83;;;9.60;99.90;;;;;;5033809;28;20447;-85
2022/04/07 00:40:05;;;;;;;7.63;5.53;;;9.70;99.90;;;;;;5032657;28;20390;-81
2022/04/07 00:42:30;;;;;;;10.67;5.67;;;9.70;99.90;;;;;;5033794;28;20545;-82
2022/04/07 00:44:56;;;;;;;10.17;5.57;;;9.60;99.90;;;;;;5032705;28;20112;-77
2022/04/07 00:47:23;;;;;;;8.47;4.47;;;9.70;99.90;;;;;;5034333;28;20378;-79
2022/04/07 00:49:48;;;;;;;7.23;4.43;;;9.60;99.90;;;;;;5032479;28;20052;-78
2022/04/07 00:52:17;;;;;;;10.13;4.67;;;9.70;99.90;;;;;;5016252;28;20116;-82
2022/04/07 00:54:43;;;;;;;9.57;4.60;;;9.60;99.90;;;;;;5032194;28;20056;-85
2022/04/07 00:57:09;;;;;;;8.77;5.07;;;9.60;99.90;;;;;;5045445;28;20439;-79
2022/04/07 00:59:38;;;;;;;12.63;4.70;;;9.60;99.90;;;;;;5036414;28;20056;-85
2022/04/07 01:02:05;;;;;;;7.83;3.90;;;9.60;99.90;;;;;;5064653;28;20069;-81
2022/04/07 01:04:30;;;;;;;10.17;3.40;;;9.70;99.90;;;;;;5065394;28;20064;-80
2022/04/07 01:06:56;;;;;;;9.67;2.47;;;9.60;99.90;;;;;;5065740;28;20112;-85
2022/04/07 01:09:22;;;;;;;6.97;2.70;;;9.70;99.90;;;;;;5048835;28;20141;-83
2022/04/07 01:11:49;;;;;;;8.20;2.20;;;9.70;99.90;;;;;;5033619;28;20030;-79
2022/04/07 01:14:14;;;;;;;11.43;2.47;;;9.70;99.90;;;;;;5032033;28;20030;-78
2022/04/07 01:16:40;;;;;;;9.90;2.00;;;9.70;99.90;;;;;;5033276;28;20535;-81
2022/04/07 01:19:06;;;;;;;15.90;3.57;;;9.70;99.90;;;;;;5033481;28;20025;-78
2022/04/07 01:21:34;;;;;;;11.47;2.93;;;9.60;99.90;;;;;;5033234;28;20053;-81
2022/04/07 01:24:06;;;;;;;6.03;1.73;;;9.70;99.90;;;;;;5064741;28;20060;-84
2022/04/07 01:26:42;;;;;;;11.40;2.73;;;9.70;99.90;;;;;;5032166;28;20017;-82
2022/04/07 01:29:10;;;;;;;10.33;2.90;;;9.70;99.90;;;;;;5034455;28;20033;-84
2022/04/07 01:31:36;;;;;;;10.70;2.00;;;9.60;99.90;;;;;;5034078;28;20075;-83
2022/04/07 01:34:05;;;;;;;15.03;3.07;;;9.60;99.90;;;;;;5048552;28;20531;-79
2022/04/07 01:36:34;;;;;;;9.03;2.50;;;9.50;99.90;;;;;;5048757;28;20023;-80
2022/04/07 01:39:01;;;;;;;7.97;2.90;;;9.40;99.90;;;;;;5033070;28;20076;-81
2022/04/07 01:41:26;;;;;;;13.63;2.40;;;9.30;99.90;;;;;;5031951;28;20501;-83
2022/04/07 01:43:56;;;;;;;10.07;2.60;;;9.30;99.90;;;;;;5033409;28;20022;-82
2022/04/07 01:46:23;;;;;;;10.80;2.90;;;9.20;99.90;;;;;;5031845;28;20021;-80
2022/04/07 01:48:50;;;;;;;11.57;3.33;;;9.20;99.90;;;;;;5048429;28;20513;-80
2022/04/07 01:51:16;;;;;;;16.37;3.37;;;9.20;99.90;;;;;;5066260;28;20033;-83
2022/04/07 01:53:43;;;;;;;13.03;3.30;;;9.10;99.90;;;;;;5036945;28;20025;-83
2022/04/07 01:56:09;;;;;;;10.73;3.37;;;9.10;99.90;;;;;;5037099;28;20032;-85
2022/04/07 01:58:36;;;;;;;11.20;4.13;;;9.10;99.90;;;;;;5035409;28;20041;-78
2022/04/07 02:01:03;;;;;;;13.00;3.63;;;9.10;99.90;;;;;;5035558;28;20026;-82
2022/04/07 02:03:29;;;;;;;11.27;3.10;;;9.10;99.90;;;;;;5036985;28;20028;-79
2022/04/07 02:05:55;;;;;;;13.57;3.20;;;9.10;99.90;;;;;;5052394;28;20030;-81
2022/04/07 02:08:21;;;;;;;13.47;3.83;;;9.00;99.90;;;;;;5052056;28;20036;-81
2022/04/07 02:10:46;;;;;;;9.57;3.40;;;9.00;99.90;;;;;;5068919;28;20035;-83
2022/04/07 02:13:13;;;;;;;12.23;4.10;;;9.10;99.90;;;;;;5035417;28;20053;-84
2022/04/07 02:15:39;;;;;;;14.33;4.27;;;9.00;99.90;;;;;;5068848;28;20033;-82
2022/04/07 02:18:05;;;;;;;12.87;4.37;;;9.00;99.90;;;;;;5035075;28;20037;-82
2022/04/07 02:20:31;;;;;;;10.30;4.40;;;9.00;99.90;;;;;;5036590;28;20056;-79
2022/04/07 02:22:57;;;;;;;14.80;4.97;;;8.90;99.90;;;;;;5052177;28;20029;-79
2022/04/07 02:25:27;;;;;;;12.40;5.33;;;8.90;99.90;;;;;;5051772;28;20025;-85
2022/04/07 02:27:53;;;;;;;19.87;5.63;;;9.00;99.90;;;;;;5036262;28;20022;-83
2022/04/07 02:30:18;;;;;;;10.63;5.73;;;8.90;99.90;;;;;;5036655;28;20151;-81
2022/04/07 02:32:44;;;;;;;13.27;6.30;;;8.90;99.90;;;;;;5068522;28;20037;-81
2022/04/07 02:35:12;;;;;;;20.73;6.67;;;8.90;99.90;;;;;;5036158;28;20041;-79
2022/04/07 02:37:38;;;;;;;15.20;6.23;;;8.90;99.90;;;;;;5036598;28;20522;-77
2022/04/07 02:40:05;;;;;;;14.03;6.13;;;8.90;99.90;;;;;;5034774;28;20573;-83
2022/04/07 02:42:31;;;;;;;18.10;6.13;;;8.90;99.90;;;;;;5034968;28;20033;-83
2022/04/07 02:44:56;;;;;;;16.37;7.47;;;8.90;99.90;;;;;;5052035;28;20025;-81
2022/04/07 02:47:32;;;;;;;12.27;6.10;;;8.80;99.90;;;;;;5035418;28;20029;-86
2022/04/07 02:49:58;;;;;;;10.93;5.43;;;8.80;99.90;;;;;;5035147;28;20493;-80
2022/04/07 02:52:24;;;;;;;18.70;6.70;;;8.80;99.90;;;;;;5051464;28;20045;-82
2022/04/07 02:54:49;;;;;;;18.33;6.53;;;8.80;99.90;;;;;;5034774;28;20072;-85
2022/04/07 02:57:15;;;;;;;15.30;5.83;;;8.80;99.90;;;;;;5068116;28;20037;-80
2022/04/07 02:59:41;;;;;;;20.17;7.10;;;8.80;99.90;;;;;;5066475;28;20158;-82
2022/04/07 03:02:06;;;;;;;17.70;6.17;;;8.80;99.90;;;;;;5057752;28;20051;-78
2022/04/07 03:04:32;;;;;;;17.10;7.33;;;8.90;99.90;;;;;;5073878;28;20059;-85
2022/04/07 03:06:57;;;;;;;16.40;6.57;;;8.80;99.90;;;;;;5074629;28;20032;-85
2022/04/07 03:09:23;;;;;;;17.77;7.40;;;8.80;99.90;;;;;;5057512;28;20028;-78
2022/04/07 03:11:49;;;;;;;14.73;6.67;;;8.80;99.90;;;;;;5075591;28;20032;-81
2022/04/07 03:14:15;;;;;;;24.73;6.53;;;8.80;99.90;;;;;;5075640;28;20477;-79
2022/04/07 03:16:41;;;;;;;24.20;6.93;;;8.80;99.90;;;;;;5057496;28;20048;-84
2022/04/07 03:19:07;;;;;;;25.57;6.70;;;8.80;99.90;;;;;;5057349;28;20081;-81
2022/04/07 03:21:33;;;;;;;21.77;6.33;;;8.80;99.90;;;;;;5057383;28;20021;-82
2022/04/07 03:23:58;;;;;;;24.57;7.30;;;8.90;99.90;;;;;;5057246;28;20483;-85
2022/04/07 03:26:24;;;;;;;19.10;6.10;;;8.90;99.90;;;;;;5057184;28;20012;-85
2022/04/07 03:28:49;;;;;;;22.77;5.30;;;8.90;99.90;;;;;;5057113;28;20171;-87
2022/04/07 03:31:15;;;;;;;19.60;5.43;;;8.90;99.90;;;;;;5073877;28;20029;-82
2022/04/07 03:33:41;;;;;;;13.00;4.17;;;8.90;99.90;;;;;;5073826;28;20047;-80
2022/04/07 03:36:06;;;;;;;17.70;4.73;;;8.90;99.90;;;;;;5057013;28;20055;-79
2022/04/07 03:38:32;;;;;;;19.90;4.03;;;9.00;99.90;;;;;;5074877;28;20032;-83
2022/04/07 03:40:58;;;;;;;17.37;4.00;;;9.00;99.90;;;;;;5073657;28;20035;-83
2022/04/07 03:43:24;;;;;;;23.87;3.93;;;9.00;99.90;;;;;;5073689;28;20032;-80
2022/04/07 03:45:49;;;;;;;14.23;4.03;;;9.00;99.90;;;;;;5073523;28;20032;-83
2022/04/07 03:48:15;;;;;;;18.03;4.20;;;9.00;99.90;;;;;;5057142;28;20024;-79
2022/04/07 03:50:41;;;;;;;19.73;3.90;;;9.10;99.90;;;;;;5074671;28;20382;-82
2022/04/07 03:53:07;;;;;;;15.20;3.90;;;9.10;99.90;;;;;;5057350;28;20028;-80
2022/04/07 03:55:33;;;;;;;17.53;4.40;;;9.10;99.90;;;;;;5073467;28;20059;-80
2022/04/07 03:57:58;;;;;;;16.47;4.07;;;9.00;99.90;;;;;;5074431;28;20032;-84
2022/04/07 04:00:26;;;;;;;23.93;4.80;;;9.00;99.90;;;;;;5074116;28;20049;-83
2022/04/07 04:02:52;;;;;;;18.97;4.83;;;9.10;99.90;;;;;;5074427;28;20025;-78
2022/04/07 04:05:18;;;;;;;15.33;4.50;;;9.00;99.90;;;;;;5056423;28;20024;-78
2022/04/07 04:07:44;;;;;;;20.27;4.53;;;9.10;99.90;;;;;;5056439;28;20020;-78
2022/04/07 04:10:10;;;;;;;20.13;4.83;;;9.00;99.90;;;;;;5073115;28;20476;-83
2022/04/07 04:12:36;;;;;;;22.10;4.60;;;9.00;99.90;;;;;;5073108;28;20032;-81
2022/04/07 04:15:02;;;;;;;20.87;6.43;;;8.90;99.90;;;;;;5055183;28;20366;-79
2022/04/07 04:17:31;;;;;;;17.43;4.77;;;8.90;99.90;;;;;;5074082;28;20028;-85
2022/04/07 04:19:57;;;;;;;18.87;5.40;;;8.90;99.90;;;;;;5056006;28;20029;-81
2022/04/07 04:22:23;;;;;;;18.93;4.60;;;8.90;99.90;;;;;;5074207;28;20027;-82
2022/04/07 04:24:49;;;;;;;18.70;4.83;;;8.90;99.90;;;;;;5056002;28;20024;-84
2022/04/07 04:27:14;;;;;;;20.77;4.73;;;8.90;99.90;;;;;;5083568;28;20035;-74
2022/04/07 04:29:43;;;;;;;20.97;4.83;;;8.90;99.90;;;;;;5056197;28;20035;-77
2022/04/07 04:32:09;;;;;;;19.57;5.33;;;8.80;99.90;;;;;;5084205;28;20392;-75
2022/04/07 04:34:35;;;;;;;15.80;4.20;;;8.90;99.90;;;;;;5059119;28;20039;-76
2022/04/07 04:37:01;;;;;;;14.40;3.70;;;8.90;99.90;;;;;;5066969;28;20037;-76
2022/04/07 04:39:26;;;;;;;16.70;4.47;;;8.90;99.90;;;;;;5072086;28;20366;-75
2022/04/07 04:41:52;;;;;;;16.13;4.40;;;8.90;99.90;;;;;;5038797;28;20365;-76
2022/04/07 04:44:18;;;;;;;14.27;4.33;;;8.90;99.90;;;;;;5073360;28;20048;-76
2022/04/07 04:46:43;;;;;;;16.20;3.70;;;8.90;99.90;;;;;;5073756;28;20064;-76
2022/04/07 04:49:09;;;;;;;15.90;4.00;;;8.90;99.90;;;;;;5073539;28;20039;-76
2022/04/07 04:51:35;;;;;;;14.07;3.50;;;8.90;99.90;;;;;;5055707;28;20107;-75
2022/04/07 04:54:00;;;;;;;14.07;3.10;;;9.00;99.90;;;;;;5055633;28;20036;-74
2022/04/07 04:56:27;;;;;;;15.53;3.30;;;9.00;99.90;;;;;;5055432;28;20362;-75
2022/04/07 04:58:54;;;;;;;9.53;2.33;;;9.00;99.90;;;;;;5030794;28;20069;-76
2022/04/07 05:01:19;;;;;;;11.80;3.23;;;9.00;99.90;;;;;;5032495;28;20039;-75
2022/04/07 05:03:45;;;;;;;18.77;3.17;;;9.10;99.90;;;;;;5032426;28;20104;-79
2022/04/07 05:06:11;;;;;;;14.27;2.77;;;9.20;99.90;;;;;;5032389;28;20421;-80
2022/04/07 05:08:36;;;;;;;9.03;2.30;;;9.20;99.90;;;;;;5033380;28;20121;-78
2022/04/07 05:11:02;;;;;;;6.63;1.87;;;9.20;99.90;;;;;;5033325;28;20041;-83
2022/04/07 05:13:28;;;;;;;12.67;2.90;;;9.20;99.90;;;;;;5032117;28;20351;-82
2022/04/07 05:15:53;;;;;;;17.20;2.87;;;9.20;99.90;;;;;;5033255;28;20061;-81
2022/04/07 05:18:19;;;;;;;8.33;2.13;;;9.20;99.90;;;;;;5031941;28;20053;-77
2022/04/07 05:20:44;;;;;;;9.00;1.80;;;9.20;99.90;;;;;;5032109;28;20033;-83
2022/04/07 05:23:10;;;;;;;6.07;1.90;;;9.20;99.90;;;;;;5031946;28;20472;-83
2022/04/07 05:25:36;;;;;;;7.40;1.50;;;9.30;99.90;;;;;;5033220;28;20486;-81
2022/04/07 05:28:02;;;;;;;7.07;1.37;;;9.30;99.90;;;;;;5037506;28;20026;-80
2022/04/07 05:30:28;;;;;;;9.27;1.57;;;9.30;99.90;;;;;;5036126;28;20029;-80
2022/04/07 05:32:53;;;;;;;4.70;1.50;;;9.30;99.90;;;;;;5045286;28;20016;-78
2022/04/07 05:35:19;;;;;;;5.50;1.43;;;9.30;99.90;;;;;;5039335;28;20035;-80
2022/04/07 05:37:44;;;;;;;7.40;1.33;;;9.40;99.90;;;;;;5055930;28;20112;-82
2022/04/07 05:40:12;;;;;;;5.57;1.57;;;9.40;99.90;;;;;;5056084;28;20056;-80
2022/04/07 05:42:37;;;;;;;6.20;1.40;;;9.30;99.90;;;;;;5055974;28;20035;-83
2022/04/07 05:45:04;;;;;;;6.60;1.20;;;9.30;99.90;;;;;;5057479;28;20538;-78
2022/04/07 05:47:30;;;;;;;6.70;1.70;;;9.30;99.90;;;;;;5057419;28;20032;-78
2022/04/07 05:49:56;;;;;;;8.23;1.27;;;9.50;99.90;;;;;;5039037;28;20029;-79
2022/04/07 05:52:22;;;;;;;3.03;1.07;;;9.40;99.90;;;;;;5036435;28;20037;-79
2022/04/07 05:54:48;;;;;;;6.40;1.37;;;9.40;99.90;;;;;;5055715;28;20112;-80
2022/04/07 05:57:14;;;;;;;3.97;1.13;;;9.40;99.90;;;;;;5055304;28;20434;-78
2022/04/07 05:59:39;;;;;;;5.67;1.93;;;9.40;99.90;;;;;;5049713;28;20127;-81
2022/04/07 06:02:05;;;;;;;5.30;1.40;;;9.40;99.90;;;;;;5075418;28;20029;-80
2022/04/07 06:04:31;;;;;;;4.70;1.00;;;9.40;99.90;;;;;;5077059;28;20051;-84
2022/04/07 06:06:57;;;;;;;3.97;1.37;;;9.40;99.90;;;;;;5059059;28;20472;-79
2022/04/07 06:09:22;;;;;;;5.10;1.80;;;9.30;99.90;;;;;;5058794;28;20548;-83
2022/04/07 06:11:48;;;;;;;6.97;1.80;;;9.30;99.90;;;;;;5058736;28;20028;-81
2022/04/07 06:14:13;;;;;;;9.40;2.07;;;9.10;99.90;;;;;;5058423;28;20517;-78
2022/04/07 06:16:39;;;;;;;4.70;2.37;;;9.10;99.90;;;;;;5058138;28;20024;-82
2022/04/07 06:19:05;;;;;;;7.37;2.43;;;9.00;99.90;;;;;;5041785;28;20098;-78
2022/04/07 06:21:30;;;;;;;7.80;2.67;;;9.00;99.90;;;;;;5076276;28;20521;-81
2022/04/07 06:23:57;;;;;;;8.67;2.60;;;9.00;99.90;;;;;;5076222;28;20408;-80
2022/04/07 06:26:23;;;;;;;7.63;3.10;;;8.90;99.90;;;;;;5074781;28;20029;-83
2022/04/07 06:28:49;;;;;;;6.50;2.20;;;8.90;99.90;;;;;;5055292;28;20037;-79
2022/04/07 06:31:15;;;;;;;9.07;3.20;;;8.90;99.90;;;;;;5038236;28;20095;-84
2022/04/07 06:33:40;;;;;;;8.07;3.37;;;8.90;99.90;;;;;;5038219;28;20033;-84
2022/04/07 06:36:07;;;;;;;6.17;3.40;;;8.90;99.90;;;;;;5038223;28;20033;-80
2022/04/07 06:38:33;;;;;;;10.57;4.13;;;8.90;99.90;;;;;;5073373;28;20042;-84
2022/04/07 06:41:02;;;;;;;12.17;4.17;;;8.90;99.90;;;;;;5075057;28;20016;-83
2022/04/07 06:43:27;;;;;;;13.93;5.33;;;8.90;99.90;;;;;;5057983;28;20029;-81
2022/04/07 06:45:53;;;;;;;12.30;5.27;;;8.90;99.90;;;;;;5041347;28;20116;-78
2022/04/07 06:48:19;;;;;;;12.67;4.83;;;8.90;99.90;;;;;;5074560;28;20025;-81
2022/04/07 06:50:45;;;;;;;9.27;4.67;;;8.90;99.90;;;;;;5075979;28;20029;-81
2022/04/07 06:53:14;;;;;;;17.43;4.93;;;8.90;99.90;;;;;;5057968;28;20032;-81
2022/04/07 06:55:40;;;;;;;15.40;5.77;;;8.80;99.90;;;;;;5074492;28;20078;-85
2022/04/07 06:58:11;;;;;;;11.73;5.33;;;8.80;99.90;;;;;;5057962;28;20037;-84
2022/04/07 07:00:45;;;;;;;15.23;5.07;;;8.80;99.90;;;;;;5074384;28;20063;-82
2022/04/07 07:03:13;;;;;;;12.07;4.95;;;8.80;99.90;;;;;;5074533;28;20021;-82
2022/04/07 07:05:38;;;;;;;11.57;3.43;;;8.80;99.90;;;;;;5072589;28;20495;-80
2022/04/07 07:08:13;;;;;;;3.93;0.50;;;8.80;99.90;;;;;;5074214;28;20025;-81
2022/04/07 07:10:39;;;;;;;4.97;0.50;;;8.30;99.90;;;;;;5068904;28;20024;-84
2022/04/07 07:13:05;;;;;;;3.60;0.50;;;7.70;99.90;;;;;;5055584;28;20018;-82
2022/04/07 07:15:30;;;;;;;4.80;0.50;;;7.30;99.90;;;;;;5061375;28;20078;-84
2022/04/07 07:17:56;;;;;;;4.13;0.63;;;6.80;99.90;;;;;;5037608;28;20032;-85
2022/04/07 07:20:22;;;;;;;3.53;0.60;;;6.60;99.90;;;;;;5038200;28;20117;-80
2022/04/07 07:22:47;;;;;;;1.80;0.50;;;6.40;99.90;;;;;;5046224;28;20045;-82
2022/04/07 07:25:14;;;;;;;4.77;0.63;;;6.20;99.90;;;;;;5038047;28;20037;-81
2022/04/07 07:27:45;;;;;;;5.63;0.60;;;6.20;99.90;;;;;;5062475;28;20016;-83
2022/04/07 07:30:12;;;;;;;7.70;0.80;;;6.10;99.90;;;;;;5065166;28;20464;-83
2022/04/07 07:32:39;;;;;;;6.30;0.80;;;6.10;99.90;;;;;;5070892;28;20032;-80
2022/04/07 07:35:07;;;;;;;3.90;1.10;;;6.10;99.90;;;;;;5041891;28;20029;-83
2022/04/07 07:37:33;;;;;;;9.37;1.10;;;6.00;99.90;;;;;;5054383;28;20029;-83
2022/04/07 07:40:07;;;;;;;5.27;1.00;;;6.00;99.90;;;;;;5045107;28;20086;-80
2022/04/07 07:42:33;;;;;;;8.82;1.33;;;6.00;99.90;;;;;;5069342;28;20028;-83
2022/04/07 07:44:58;;;;;;;8.07;1.37;;;6.00;99.90;;;;;;5073810;28;20027;-81
2022/04/07 07:47:24;;;;;;;4.27;1.20;;;6.00;99.90;;;;;;5057194;28;20037;-82
2022/04/07 07:49:50;;;;;;;7.97;1.20;;;6.00;99.90;;;;;;5061314;28;20072;-83
2022/04/07 07:52:16;;;;;;;6.37;1.10;;;6.00;99.90;;;;;;5036976;28;20052;-82
2022/04/07 07:54:41;;;;;;;6.57;1.10;;;6.00;99.90;;;;;;5053689;28;20029;-83
2022/04/07 07:57:07;;;;;;;9.53;1.27;;;6.00;99.90;;;;;;5053591;28;20222;-82
2022/04/07 07:59:33;;;;;;;11.13;1.47;;;6.10;99.90;;;;;;5075421;28;20124;-81
2022/04/07 08:01:58;;;;;;;9.63;1.27;;;6.10;99.90;;;;;;5060707;28;20093;-84
2022/04/07 08:04:24;;;;;;;12.70;2.27;;;6.00;99.90;;;;;;5077461;28;20078;-82
2022/04/07 08:06:50;;;;;;;12.03;1.63;;;6.00;99.90;;;;;;5077592;28;20028;-81
2022/04/07 08:09:15;;;;;;;11.23;1.87;;;5.90;99.90;;;;;;5060357;28;20062;-84
2022/04/07 08:11:41;;;;;;;11.90;1.83;;;6.10;99.90;;;;;;5077283;28;20085;-84
2022/04/07 08:14:08;;;;;;;6.93;1.63;;;6.00;99.90;;;;;;5076947;28;20031;-85
2022/04/07 08:16:37;;;;;;;8.03;1.60;;;6.00;99.90;;;;;;5060647;28;20415;-83
2022/04/07 08:19:04;;;;;;;9.50;2.03;;;6.00;99.90;;;;;;5059519;28;20606;-81
2022/04/07 08:21:30;;;;;;;7.57;1.90;;;6.00;99.90;;;;;;5076225;28;20024;-83
2022/04/07 08:23:55;;;;;;;8.03;1.73;;;6.00;99.90;;;;;;5094448;28;20468;-82
2022/04/07 08:26:21;;;;;;;10.10;1.57;;;6.10;99.90;;;;;;5076177;28;20035;-83
2022/04/07 08:28:47;;;;;;;9.17;1.60;;;6.10;99.90;;;;;;5060569;28;20042;-83
2022/04/07 08:31:12;;;;;;;8.53;1.97;;;6.30;99.90;;;;;;5059457;28;20034;-77
2022/04/07 08:33:38;;;;;;;10.60;2.37;;;6.30;99.90;;;;;;5057882;28;20040;-77
2022/04/07 08:36:04;;;;;;;11.67;2.40;;;6.40;99.90;;;;;;5075948;28;20020;-77
2022/04/07 08:38:29;;;;;;;10.53;2.30;;;6.50;99.90;;;;;;5059087;28;20076;-76
2022/04/07 08:40:56;;;;;;;9.27;2.60;;;6.60;99.90;;;;;;5059529;28;20115;-84
2022/04/07 08:43:25;;;;;;;12.20;2.70;;;6.70;99.90;;;;;;5076499;28;20024;-83
2022/04/07 08:45:51;;;;;;;13.00;3.70;;;6.70;99.90;;;;;;5076168;28;20016;-77
2022/04/07 08:48:17;;;;;;;11.20;3.07;;;6.90;99.90;;;;;;5058872;28;20031;-76
2022/04/07 08:50:44;;;;;;;10.00;3.10;;;6.90;99.90;;;;;;5075458;28;20032;-77
2022/04/07 08:53:11;;;;;;;9.23;3.10;;;6.90;99.90;;;;;;5059796;28;20020;-84
2022/04/07 08:55:37;;;;;;;13.07;3.80;;;6.90;99.90;;;;;;5076645;28;20388;-82
2022/04/07 08:58:03;;;;;;;11.47;3.40;;;7.00;99.90;;;;;;5078360;28;20035;-85
2022/04/07 09:00:29;;;;;;;10.53;3.07;;;7.10;99.90;;;;;;5097987;28;20508;-80
2022/04/07 09:02:55;;;;;;;13.37;3.50;;;7.20;99.90;;;;;;5079185;28;20027;-84
2022/04/07 09:05:23;;;;;;;11.13;3.53;;;7.40;99.90;;;;;;5075932;28;20454;-83
2022/04/07 09:07:50;;;;;;;9.80;2.63;;;7.60;99.90;;;;;;5093851;28;20024;-86
2022/04/07 09:10:19;;;;;;;7.40;2.50;;;7.60;99.90;;;;;;5059342;28;20032;-85
2022/04/07 09:12:44;;;;;;;6.03;2.10;;;7.90;99.90;;;;;;5093594;28;20024;-86
2022/04/07 09:15:13;;;;;;;13.17;1.90;;;7.90;99.90;;;;;;5093724;28;20074;-84
2022/04/07 09:17:55;;;;;;;6.83;1.80;;;8.00;99.90;;;;;;5093699;28;20073;-83
2022/04/07 09:20:22;;;;;;;5.00;1.53;;;8.10;99.90;;;;;;5075536;28;20061;-80
2022/04/07 09:22:58;;;;;;;7.70;1.80;;;8.30;99.90;;;;;;5075771;28;20499;-79
2022/04/07 09:25:27;;;;;;;11.37;2.90;;;8.40;99.90;;;;;;5059033;28;20028;-82
2022/04/07 09:27:57;;;;;;;7.90;1.83;;;8.40;99.90;;;;;;5093503;28;20028;-85
2022/04/07 09:30:23;;;;;;;9.53;2.10;;;8.50;99.90;;;;;;5059340;28;20459;-81
2022/04/07 09:32:49;;;;;;;9.37;2.20;;;8.50;99.90;;;;;;5093381;28;20499;-83
2022/04/07 09:35:15;;;;;;;12.77;2.43;;;8.50;99.90;;;;;;5058427;28;20020;-83
2022/04/07 09:37:42;;;;;;;7.63;1.90;;;8.60;99.90;;;;;;5093246;28;20024;-81
2022/04/07 09:40:14;;;;;;;10.47;2.03;;;8.60;99.90;;;;;;5075383;28;20051;-82
2022/04/07 09:42:43;;;;;;;8.63;1.87;;;8.60;99.90;;;;;;5075092;28;20019;-85
2022/04/07 09:45:13;;;;;;;7.93;1.63;;;8.70;99.90;;;;;;5075285;28;20450;-81
2022/04/07 09:47:50;;;;;;;10.40;1.83;;;8.70;99.90;;;;;;5075012;28;20115;-82
2022/04/07 09:50:30;;;;;;;10.13;1.20;;;8.70;99.90;;;;;;5075346;28;20491;-82
2022/04/07 09:52:57;;;;;;;11.70;1.67;;;8.80;99.90;;;;;;5055195;28;20032;-80
2022/04/07 09:55:27;;;;;;;8.73;1.30;;;8.80;99.90;;;;;;5072791;28;20028;-83
2022/04/07 09:57:54;;;;;;;6.90;1.47;;;8.80;99.90;;;;;;5054935;28;20029;-85
2022/04/07 10:00:19;;;;;;;10.97;1.20;;;8.80;99.90;;;;;;5045432;28;20123;-81
2022/04/07 10:02:46;;;;;;;6.57;1.13;;;8.80;99.90;;;;;;5087333;28;20038;-81
2022/04/07 10:05:12;;;;;;;9.57;1.03;;;8.90;99.90;;;;;;5054707;28;20017;-82
2022/04/07 10:07:40;;;;;;;10.50;1.00;;;8.90;99.90;;;;;;5037864;28;20429;-82
2022/04/07 10:10:07;;;;;;;6.23;1.00;;;9.00;99.90;;;;;;5075065;28;20070;-82
2022/04/07 10:12:33;;;;;;;8.23;1.13;;;9.10;99.90;;;;;;5075966;28;20501;-79
2022/04/07 10:14:59;;;;;;;7.27;0.90;;;9.20;99.90;;;;;;5097318;28;20447;-81
2022/04/07 10:17:25;;;;;;;5.87;0.80;;;9.30;99.90;;;;;;5063782;28;20024;-82
2022/04/07 10:20:01;;;;;;;6.13;0.70;;;9.30;99.90;;;;;;5063006;28;20035;-81
2022/04/07 10:22:54;;;;;;;4.87;1.07;;;9.30;99.90;;;;;;5096574;28;20074;-80
2022/04/07 10:25:23;;;;;;;7.97;0.90;;;9.40;99.90;;;;;;5078156;28;20479;-80
2022/04/07 10:27:54;;;;;;;7.23;0.80;;;9.50;99.90;;;;;;5078111;28;20028;-82
2022/04/07 10:30:21;;;;;;;9.97;1.13;;;9.50;99.90;;;;;;5096213;28;20035;-81
2022/04/07 10:32:54;;;;;;;10.00;1.10;;;9.50;99.90;;;;;;5078032;28;20404;-83
2022/04/07 10:35:33;;;;;;;7.47;0.77;;;9.60;99.90;;;;;;5061559;28;20024;-82
2022/04/07 10:38:05;;;;;;;10.10;1.00;;;9.50;99.90;;;;;;5095855;28;20021;-81
2022/04/07 10:40:49;;;;;;;10.73;1.63;;;9.60;99.90;;;;;;5096725;28;20034;-82
2022/04/07 10:43:14;;;;;;;9.82;0.85;;;9.60;99.90;;;;;;5081147;28;20052;-82
2022/04/07 10:45:42;;;;;;;7.10;1.35;;;9.90;99.90;;;;;;5080086;28;20476;-81
2022/04/07 10:48:27;;;;;;;8.98;1.63;;;10.30;99.90;;;;;;5063234;28;20024;-79
2022/04/07 10:51:00;;;;;;;9.32;0.80;;;10.70;98.00;;;;;;5078785;28;20068;-84
2022/04/07 10:53:34;;;;;;;9.97;1.00;;;10.70;95.50;;;;;;5096831;28;20028;-81
2022/04/07 10:56:24;;;;;;;7.43;1.17;;;10.70;95.80;;;;;;5078567;28;20419;-80
2022/04/07 10:58:51;;;;;;;9.98;1.00;;;10.90;93.50;;;;;;5063952;28;20036;-82
2022/04/07 11:01:32;;;;;;;10.13;1.17;;;10.90;93.30;;;;;;5078606;28;20035;-83
2022/04/07 11:04:22;;;;;;;13.02;1.45;;;10.90;90.80;;;;;;5096847;28;20035;-82
2022/04/07 11:07:13;;;;;;;8.25;1.17;;;10.70;89.40;;;;;;5097864;28;20563;-84
2022/04/07 11:09:58;;;;;;;10.10;0.95;;;10.50;90.00;;;;;;5079991;28;20031;-80
2022/04/07 11:12:31;;;;;;;10.15;1.05;;;10.40;88.90;;;;;;5079183;28;20373;-80
2022/04/07 11:15:03;;;;;;;15.15;1.38;;;10.30;88.50;;;;;;5097972;28;20024;-82
2022/04/07 11:17:41;;;;;;;10.13;1.33;;;10.20;89.70;;;;;;5078982;28;20028;-82
2022/04/07 11:20:21;;;;;;;12.13;1.47;;;10.00;90.50;;;;;;5078450;28;20024;-83
2022/04/07 11:23:05;;;;;;;16.13;1.93;;;10.00;89.90;;;;;;5061468;28;20051;-83
2022/04/07 11:25:32;;;;;;;;;;;10.00;89.30;;;;;;5096763;28;20134;-81
2022/04/07 11:28:12;;;;;;;8.80;1.43;;;9.90;89.40;;;;;;5079788;28;20298;-81
2022/04/07 11:30:42;;;;;;;12.67;1.20;;;10.00;89.10;;;;;;5079538;28;20024;-82
2022/04/07 11:33:20;;;;;;;16.40;1.27;;;9.90;86.80;;;;;;5079036;28;20603;-84
2022/04/07 11:36:03;;;;;;;8.63;1.10;;;9.90;86.90;;;;;;5097532;28;20024;-82
2022/04/07 11:38:32;;;;;;;11.97;1.53;;;9.80;87.50;;;;;;5096965;28;20032;-81
2022/04/07 11:41:12;;;;;;;15.83;1.60;;;9.80;87.60;;;;;;5097230;28;20032;-82
2022/04/07 11:43:42;;;;;;;11.97;1.87;;;9.80;87.00;;;;;;5096843;28;20107;-83
2022/04/07 11:46:09;;;;;;;19.10;2.70;;;9.80;86.50;;;;;;5078515;28;20464;-85
2022/04/07 11:48:37;;;;;;;11.37;1.50;;;9.90;86.20;;;;;;5095031;28;20028;-81
2022/04/07 11:51:14;;;;;;;9.10;0.97;;;9.90;86.00;;;;;;5094279;28;20032;-81
2022/04/07 11:53:52;;;;;;;11.88;1.23;;;10.10;86.20;;;;;;5093532;28;20031;-81
2022/04/07 11:56:25;;;;;;;14.65;1.45;;;10.20;85.70;;;;;;5078532;28;20047;-83
2022/04/07 11:59:01;;;;;;;9.80;1.08;;;10.30;83.40;;;;;;5088892;28;20067;-80
2022/04/07 12:01:28;;;;;;;16.42;1.80;;;10.30;85.10;;;;;;5060914;28;20481;-76
2022/04/07 12:03:56;;;;;;;8.90;1.70;;;10.60;84.50;;;;;;5076179;28;20107;-76
2022/04/07 12:06:34;;;;;;;13.30;1.27;;;10.70;83.30;;;;;;5094523;28;20028;-79
2022/04/07 12:09:02;;;;;;;10.50;1.42;;;10.70;80.50;;;;;;5076488;28;20422;-79
2022/04/07 12:11:30;;;;;;;11.70;1.50;;;10.60;81.40;;;;;;5060073;28;20035;-78
2022/04/07 12:13:57;;;;;;;8.43;1.50;;;10.70;81.20;;;;;;5076504;28;20031;-80
2022/04/07 12:16:24;;;;;;;15.50;2.47;;;10.60;81.30;;;;;;5076388;28;20036;-80
2022/04/07 12:19:04;;;;;;;13.48;2.15;;;10.60;79.80;;;;;;5094540;28;20128;-80
2022/04/07 12:21:48;;;;;;;10.57;1.30;;;10.60;80.60;;;;;;5076129;28;20456;-81
2022/04/07 12:24:14;;;;;;;12.95;1.27;;;10.60;80.90;;;;;;5062917;28;20025;-79
2022/04/07 12:26:48;;;;;;;15.48;2.05;;;10.60;81.40;;;;;;5101712;28;20076;-83
2022/04/07 12:29:15;;;;;;;;;;;10.50;81.60;;;;;;5103230;28;20028;-81
2022/04/07 12:31:41;;;;;;;11.70;1.40;;;10.50;80.10;;;;;;5103490;28;19908;-81
2022/04/07 12:34:12;;;;;;;12.45;1.65;;;10.40;79.70;;;;;;5062511;28;20036;-81
2022/04/07 12:36:42;;;;;;;11.13;1.98;;;10.30;79.50;;;;;;5075729;28;20047;-82
2022/04/07 12:39:08;;;;;;;13.48;2.08;;;10.30;79.10;;;;;;5073321;28;20028;-81
2022/04/07 12:41:40;;;;;;;12.17;1.40;;;10.20;79.70;;;;;;5092274;28;20387;-83
2022/04/07 12:44:07;;;;;;;7.78;1.42;;;10.30;81.00;;;;;;5080435;28;20048;-80
2022/04/07 12:46:47;;;;;;;9.80;1.27;;;10.40;81.60;;;;;;5071439;28;20024;-81
2022/04/07 12:49:13;;;;;;;15.07;1.58;;;10.60;81.20;;;;;;5090442;28;20039;-79
2022/04/07 12:51:40;;;;;;;10.98;1.70;;;10.80;80.10;;;;;;5093394;28;20430;-80
2022/04/07 12:54:09;;;;;;;16.00;2.10;;;10.90;79.50;;;;;;5105272;28;20055;-85